createdAt,value
2022-08-05T00:01:19.975Z,24.26
2022-08-05T00:02:07.382Z,24.26
2022-08-05T00:03:07.626Z,24.25
2022-08-05T00:04:12.040Z,24.25
2022-08-05T00:06:01.858Z,24.24
2022-08-05T00:06:30.676Z,24.23
2022-08-05T00:07:59.748Z,24.22
2022-08-05T00:08:34.347Z,24.22
2022-08-05T00:09:34.078Z,24.22
2022-08-05T00:10:38.469Z,24.21
2022-08-05T00:11:48.666Z,24.20
2022-08-05T00:12:55.974Z,24.21
2022-08-05T00:13:53.077Z,24.21
2022-08-05T00:14:56.124Z,24.20
2022-08-05T00:16:00.621Z,24.19
2022-08-05T00:17:04.933Z,24.18
2022-08-05T00:18:09.358Z,24.15
2022-08-05T00:19:13.762Z,24.14
2022-08-05T00:20:20.202Z,24.12
2022-08-05T00:21:22.581Z,24.12
2022-08-05T00:22:26.978Z,24.10
2022-08-05T00:23:45.863Z,24.09
2022-08-05T00:24:35.799Z,24.07
2022-08-05T00:25:45.544Z,24.04
2022-08-05T00:26:51.937Z,24.01
2022-08-05T00:27:49.010Z,23.95
2022-08-05T00:28:53.447Z,23.90
2022-08-05T00:29:57.842Z,23.84
2022-08-05T00:31:04.272Z,23.78
2022-08-05T00:32:13.013Z,23.73
2022-08-05T00:33:15.652Z,23.68
2022-08-05T00:34:53.257Z,23.63
2022-08-05T00:35:20.300Z,23.58
2022-08-05T00:37:12.338Z,23.54
2022-08-05T00:37:35.824Z,23.50
2022-08-05T00:38:34.041Z,23.46
2022-08-05T00:39:44.262Z,23.42
2022-08-05T00:40:41.964Z,23.37
2022-08-05T00:41:46.777Z,23.33
2022-08-05T00:42:50.763Z,23.29
2022-08-05T00:43:55.183Z,23.27
2022-08-05T00:44:59.585Z,23.23
2022-08-05T00:46:03.983Z,23.20
2022-08-05T00:47:08.385Z,23.17
2022-08-05T00:48:12.797Z,23.15
2022-08-05T00:49:17.235Z,23.13
2022-08-05T00:50:21.635Z,23.10
2022-08-05T00:51:51.884Z,23.08
2022-08-05T00:52:30.446Z,23.05
2022-08-05T00:54:00.253Z,23.03
2022-08-05T00:54:39.276Z,23.01
2022-08-05T00:55:43.886Z,23.00
2022-08-05T00:56:51.751Z,22.99
2022-08-05T00:57:58.411Z,22.98
2022-08-05T00:58:56.906Z,22.98
2022-08-05T01:00:01.314Z,22.97
2022-08-05T01:01:06.050Z,22.96
2022-08-05T01:02:10.116Z,22.94
2022-08-05T01:03:22.961Z,22.93
2022-08-05T01:04:19.949Z,22.92
2022-08-05T01:05:23.369Z,22.91
2022-08-05T01:06:32.659Z,22.90
2022-08-05T01:07:32.186Z,22.88
2022-08-05T01:08:43.366Z,22.86
2022-08-05T01:09:41.016Z,22.85
2022-08-05T01:10:51.642Z,22.85
2022-08-05T01:11:49.818Z,22.84
2022-08-05T01:13:05.359Z,22.84
2022-08-05T01:13:59.724Z,22.83
2022-08-05T01:15:04.047Z,22.84
2022-08-05T01:16:07.495Z,22.84
2022-08-05T01:17:11.888Z,22.83
2022-08-05T01:18:16.299Z,22.83
2022-08-05T01:19:20.718Z,22.82
2022-08-05T01:20:25.130Z,22.81
2022-08-05T01:21:38.459Z,22.79
2022-08-05T01:22:34.131Z,22.77
2022-08-05T01:23:38.359Z,22.75
2022-08-05T01:24:42.791Z,22.74
2022-08-05T01:25:53.251Z,22.73
2022-08-05T01:26:51.592Z,22.71
2022-08-05T01:27:56.035Z,22.70
2022-08-05T01:29:03.525Z,22.69
2022-08-05T01:30:04.841Z,22.67
2022-08-05T01:31:09.246Z,22.66
2022-08-05T01:32:18.402Z,22.65
2022-08-05T01:33:19.730Z,22.64
2022-08-05T01:34:22.481Z,22.64
2022-08-05T01:35:51.873Z,22.63
2022-08-05T01:36:31.292Z,22.63
2022-08-05T01:37:36.614Z,22.62
2022-08-05T01:38:40.101Z,22.61
2022-08-05T01:39:47.730Z,22.62
2022-08-05T01:40:48.932Z,22.61
2022-08-05T01:41:53.353Z,22.59
2022-08-05T01:42:57.755Z,22.58
2022-08-05T01:44:02.161Z,22.57
2022-08-05T01:45:08.194Z,22.55
2022-08-05T01:46:16.251Z,22.54
2022-08-05T01:47:15.423Z,22.53
2022-08-05T01:48:19.833Z,22.53
2022-08-05T01:49:24.947Z,22.52
2022-08-05T01:50:29.695Z,22.51
2022-08-05T01:51:33.093Z,22.50
2022-08-05T01:52:37.513Z,22.49
2022-08-05T01:53:57.064Z,22.48
2022-08-05T01:54:46.511Z,22.47
2022-08-05T01:55:50.748Z,22.45
2022-08-05T01:58:10.036Z,22.44
2022-08-05T01:58:14.862Z,22.44
2022-08-05T01:59:03.995Z,22.42
2022-08-05T02:00:12.056Z,22.41
2022-08-05T02:01:12.835Z,22.39
2022-08-05T02:02:17.281Z,22.38
2022-08-05T02:03:28.930Z,22.36
2022-08-05T02:04:26.078Z,22.36
2022-08-05T02:05:30.487Z,22.36
2022-08-05T02:06:38.190Z,22.35
2022-08-05T02:07:39.316Z,22.35
2022-08-05T02:08:54.762Z,22.35
2022-08-05T02:09:48.150Z,22.35
2022-08-05T02:10:52.547Z,22.35
2022-08-05T02:11:56.958Z,22.35
2022-08-05T02:13:01.358Z,22.35
2022-08-05T02:14:05.771Z,22.36
2022-08-05T02:15:12.111Z,22.35
2022-08-05T02:16:16.432Z,22.34
2022-08-05T02:18:14.508Z,22.33
2022-08-05T02:18:31.562Z,22.31
2022-08-05T02:19:27.826Z,22.29
2022-08-05T02:20:32.268Z,22.27
2022-08-05T02:21:38.052Z,22.25
2022-08-05T02:22:41.092Z,22.23
2022-08-05T02:23:46.016Z,22.21
2022-08-05T02:24:52.144Z,22.19
2022-08-05T02:25:54.328Z,22.18
2022-08-05T02:26:58.747Z,22.17
2022-08-05T02:28:03.143Z,22.16
2022-08-05T02:29:07.557Z,22.15
2022-08-05T02:30:11.980Z,22.15
2022-08-05T02:31:16.392Z,22.16
2022-08-05T02:32:24.251Z,22.16
2022-08-05T02:33:36.125Z,22.17
2022-08-05T02:34:29.608Z,22.19
2022-08-05T02:35:37.676Z,22.20
2022-08-05T02:36:38.451Z,22.20
2022-08-05T02:37:42.851Z,22.21
2022-08-05T02:38:53.126Z,22.22
2022-08-05T02:39:51.869Z,22.23
2022-08-05T02:40:56.083Z,22.23
2022-08-05T02:42:01.588Z,22.22
2022-08-05T02:43:04.884Z,22.22
2022-08-05T02:44:12.363Z,22.21
2022-08-05T02:45:13.723Z,22.20
2022-08-05T02:46:18.144Z,22.20
2022-08-05T02:47:22.721Z,22.19
2022-08-05T02:48:29.104Z,22.17
2022-08-05T02:49:36.548Z,22.14
2022-08-05T02:50:35.801Z,22.12
2022-08-05T02:52:04.416Z,22.10
2022-08-05T02:52:44.603Z,22.06
2022-08-05T02:53:49.024Z,22.02
2022-08-05T02:54:53.425Z,21.98
2022-08-05T02:56:00.318Z,21.94
2022-08-05T02:57:02.284Z,21.91
2022-08-05T02:58:09.460Z,21.88
2022-08-05T02:59:11.115Z,21.86
2022-08-05T03:00:15.517Z,21.83
2022-08-05T03:01:19.966Z,21.81
2022-08-05T03:02:24.347Z,21.80
2022-08-05T03:03:34.062Z,21.79
2022-08-05T03:04:33.152Z,21.77
2022-08-05T03:06:53.818Z,21.73
2022-08-05T03:06:54.854Z,21.75
2022-08-05T03:08:06.974Z,21.72
2022-08-05T03:08:52.331Z,21.71
2022-08-05T03:09:55.216Z,21.70
2022-08-05T03:11:55.509Z,21.68
2022-08-05T03:12:04.053Z,21.67
2022-08-05T03:14:14.428Z,21.42
2022-08-05T03:15:18.885Z,21.50
2022-08-05T03:16:23.352Z,21.54
2022-08-05T03:17:27.804Z,21.55
2022-08-05T03:18:32.244Z,21.55
2022-08-05T03:19:36.685Z,21.54
2022-08-05T03:20:48.770Z,21.54
2022-08-05T03:21:48.650Z,21.54
2022-08-05T03:22:50.602Z,21.54
2022-08-05T03:23:54.517Z,21.53
2022-08-05T03:25:11.573Z,21.53
2022-08-05T03:26:04.497Z,21.52
2022-08-05T03:27:07.899Z,21.52
2022-08-05T03:28:13.907Z,21.52
2022-08-05T03:29:17.454Z,21.51
2022-08-05T03:30:21.248Z,21.52
2022-08-05T03:31:55.767Z,21.52
2022-08-05T03:32:30.924Z,21.52
2022-08-05T03:33:50.898Z,21.53
2022-08-05T03:34:39.099Z,21.52
2022-08-05T03:35:43.550Z,21.53
2022-08-05T03:36:48.026Z,21.53
2022-08-05T03:37:53.541Z,21.54
2022-08-05T03:38:56.929Z,21.54
2022-08-05T03:40:03.819Z,21.55
2022-08-05T03:41:08.396Z,21.56
2022-08-05T03:42:10.329Z,21.57
2022-08-05T03:43:59.017Z,21.58
2022-08-05T03:44:19.859Z,21.58
2022-08-05T03:45:23.840Z,21.58
2022-08-05T03:46:29.665Z,21.59
2022-08-05T03:47:35.502Z,21.59
2022-08-05T03:48:37.091Z,21.59
2022-08-05T03:49:51.585Z,21.58
2022-08-05T03:50:46.001Z,21.57
2022-08-05T03:52:37.324Z,21.57
2022-08-05T03:55:07.165Z,21.58
2022-08-05T03:55:49.953Z,21.58
2022-08-05T03:56:05.294Z,21.59
2022-08-05T03:56:17.149Z,21.59
2022-08-05T03:57:16.762Z,21.59
2022-08-05T03:58:17.231Z,21.58
2022-08-05T03:59:21.704Z,21.57
2022-08-05T04:00:26.151Z,21.57
2022-08-05T04:01:32.234Z,21.57
2022-08-05T04:02:38.468Z,21.56
2022-08-05T04:03:39.552Z,21.56
2022-08-05T04:04:44.909Z,21.55
2022-08-05T04:05:48.463Z,21.55
2022-08-05T04:06:52.953Z,21.56
2022-08-05T04:07:59.034Z,21.56
2022-08-05T04:09:01.875Z,21.57
2022-08-05T04:10:06.343Z,21.57
2022-08-05T04:11:10.786Z,21.56
2022-08-05T04:12:23.749Z,21.55
2022-08-05T04:13:19.726Z,21.55
2022-08-05T04:14:30.179Z,21.55
2022-08-05T04:15:33.137Z,21.53
2022-08-05T04:16:33.085Z,21.49
2022-08-05T04:17:56.610Z,21.42
2022-08-05T04:18:42.030Z,21.34
2022-08-05T04:19:46.484Z,21.27
2022-08-05T04:20:50.935Z,21.22
2022-08-05T04:22:10.323Z,21.15
2022-08-05T04:22:59.884Z,21.10
2022-08-05T04:24:06.219Z,21.05
2022-08-05T04:25:08.786Z,21.00
2022-08-05T04:26:13.642Z,20.95
2022-08-05T04:27:17.745Z,20.91
2022-08-05T04:28:30.859Z,20.87
2022-08-05T04:29:27.169Z,20.86
2022-08-05T04:30:31.129Z,20.83
2022-08-05T04:31:38.749Z,20.81
2022-08-05T04:32:40.101Z,20.80
2022-08-05T04:34:19.200Z,20.79
2022-08-05T04:34:49.027Z,20.79
2022-08-05T04:36:10.865Z,20.78
2022-08-05T04:36:58.728Z,20.78
2022-08-05T04:38:06.791Z,20.78
2022-08-05T04:39:07.819Z,20.77
2022-08-05T04:40:12.158Z,20.77
2022-08-05T04:41:16.627Z,20.75
2022-08-05T04:42:21.127Z,20.74
2022-08-05T04:43:26.035Z,20.73
2022-08-05T04:59:55.917Z,19.13
2022-08-05T05:01:00.401Z,19.37
2022-08-05T05:02:35.474Z,19.53
2022-08-05T05:03:09.335Z,19.65
2022-08-05T05:04:13.733Z,19.76
2022-08-05T05:05:28.565Z,19.85
2022-08-05T05:06:40.591Z,19.93
2022-08-05T05:07:29.682Z,20.02
2022-08-05T05:08:31.498Z,20.10
2022-08-05T05:09:37.230Z,20.16
2022-08-05T05:10:40.360Z,20.21
2022-08-05T05:11:54.079Z,20.26
2022-08-05T05:12:50.621Z,20.31
2022-08-05T05:13:55.255Z,20.35
2022-08-05T05:14:57.978Z,20.39
2022-08-05T05:16:06.054Z,20.43
2022-08-05T05:17:07.355Z,20.47
2022-08-05T05:18:11.282Z,20.50
2022-08-05T05:19:23.670Z,20.54
2022-08-05T05:20:20.330Z,20.57
2022-08-05T05:21:24.554Z,20.61
2022-08-05T05:22:28.982Z,20.63
2022-08-05T05:24:01.813Z,20.65
2022-08-05T05:24:56.243Z,20.67
2022-08-05T05:25:42.262Z,20.70
2022-08-05T05:26:46.683Z,20.74
2022-08-05T05:27:53.996Z,20.77
2022-08-05T05:28:55.549Z,20.78
2022-08-05T05:30:04.669Z,20.78
2022-08-05T05:31:05.687Z,20.78
2022-08-05T05:32:12.499Z,20.78
2022-08-05T05:33:17.108Z,20.76
2022-08-05T05:34:22.528Z,20.73
2022-08-05T05:35:21.922Z,20.71
2022-08-05T05:36:28.785Z,20.69
2022-08-05T05:37:37.429Z,20.66
2022-08-05T05:38:35.145Z,20.65
2022-08-05T05:39:39.692Z,20.65
2022-08-05T05:40:49.610Z,20.65
2022-08-05T05:41:54.069Z,20.67
2022-08-05T05:42:52.768Z,20.70
2022-08-05T05:44:00.722Z,20.71
2022-08-05T05:45:02.973Z,20.74
2022-08-05T05:46:10.728Z,20.76
2022-08-05T05:47:13.183Z,20.78
2022-08-05T05:48:15.970Z,20.79
2022-08-05T05:49:23.034Z,20.79
2022-08-05T05:50:23.685Z,20.79
2022-08-05T05:51:28.296Z,20.79
2022-08-05T05:52:34.538Z,20.78
2022-08-05T05:53:54.343Z,20.79
2022-08-05T05:54:50.090Z,20.80
2022-08-05T05:55:52.430Z,20.82
2022-08-05T05:56:50.209Z,20.85
2022-08-05T05:57:54.619Z,20.87
2022-08-05T05:59:03.523Z,20.89
2022-08-05T06:00:03.456Z,20.90
2022-08-05T06:01:12.850Z,20.91
2022-08-05T06:02:12.290Z,20.89
2022-08-05T06:03:40.308Z,20.88
2022-08-05T06:04:22.073Z,20.87
2022-08-05T06:05:25.559Z,20.86
2022-08-05T06:06:33.153Z,20.86
2022-08-05T06:07:41.580Z,20.86
2022-08-05T06:08:39.661Z,20.87
2022-08-05T06:09:59.861Z,20.88
2022-08-05T06:10:52.616Z,20.91
2022-08-05T06:11:59.495Z,20.95
2022-08-05T06:12:56.509Z,20.99
2022-08-05T06:14:00.938Z,21.04
2022-08-05T06:15:05.349Z,21.10
2022-08-05T06:16:30.850Z,21.16
2022-08-05T06:17:24.562Z,21.22
2022-08-05T06:18:18.581Z,21.27
2022-08-05T06:19:33.036Z,21.30
2022-08-05T06:20:28.094Z,21.33
2022-08-05T06:21:36.657Z,21.37
2022-08-05T06:22:36.244Z,21.41
2022-08-05T06:23:44.157Z,21.44
2022-08-05T06:24:48.121Z,21.48
2022-08-05T06:26:12.446Z,21.51
2022-08-05T06:26:54.751Z,21.54
2022-08-05T06:28:11.341Z,21.58
2022-08-05T06:29:23.477Z,21.62
2022-08-05T06:30:20.107Z,21.66
2022-08-05T06:31:17.931Z,21.71
2022-08-05T06:32:25.565Z,21.76
2022-08-05T06:34:00.507Z,21.80
2022-08-05T06:34:27.761Z,21.84
2022-08-05T06:36:07.720Z,21.87
2022-08-05T06:36:53.439Z,21.88
2022-08-05T06:37:57.778Z,21.88
2022-08-05T06:38:47.034Z,21.90
2022-08-05T06:39:47.954Z,21.94
2022-08-05T06:40:52.324Z,21.97
2022-08-05T06:41:57.425Z,22.02
2022-08-05T06:43:01.137Z,22.07
2022-08-05T06:44:05.575Z,22.14
2022-08-05T06:45:09.992Z,22.20
2022-08-05T06:46:14.405Z,22.23
2022-08-05T06:48:11.348Z,22.27
2022-08-05T06:48:52.959Z,22.31
2022-08-05T06:50:02.017Z,22.34
2022-08-05T06:50:32.088Z,22.36
2022-08-05T06:51:36.498Z,22.38
2022-08-05T06:52:40.904Z,22.37
2022-08-05T06:53:45.314Z,22.36
2022-08-05T06:54:53.426Z,22.35
2022-08-05T06:55:54.263Z,22.34
2022-08-05T06:57:56.845Z,22.29
2022-08-05T06:58:29.593Z,22.26
2022-08-05T06:59:09.490Z,22.22
2022-08-05T07:00:11.845Z,22.20
2022-08-05T07:01:16.332Z,22.20
2022-08-05T07:02:22.883Z,22.21
2022-08-05T07:03:27.965Z,22.23
2022-08-05T07:04:29.525Z,22.27
2022-08-05T07:05:37.671Z,22.34
2022-08-05T07:06:38.340Z,22.39
2022-08-05T07:07:43.018Z,22.41
2022-08-05T07:08:47.857Z,22.43
2022-08-05T07:09:55.643Z,22.45
2022-08-05T07:10:55.987Z,22.50
2022-08-05T07:12:00.797Z,22.57
2022-08-05T07:13:04.800Z,22.65
2022-08-05T07:14:20.202Z,22.68
2022-08-05T07:15:13.638Z,22.66
2022-08-05T07:17:56.727Z,22.64
2022-08-05T07:18:00.822Z,22.61
2022-08-05T07:18:30.074Z,22.55
2022-08-05T07:20:10.690Z,22.51
2022-08-05T07:20:37.212Z,22.47
2022-08-05T07:22:00.510Z,22.43
2022-08-05T07:22:44.529Z,22.40
2022-08-05T07:23:49.913Z,22.38
2022-08-05T07:24:53.725Z,22.36
2022-08-05T07:25:57.809Z,22.33
2022-08-05T07:27:02.842Z,22.29
2022-08-05T07:28:09.628Z,22.25
2022-08-05T07:29:11.033Z,22.19
2022-08-05T07:30:24.084Z,22.14
2022-08-05T07:31:19.890Z,22.12
2022-08-05T07:32:26.245Z,22.14
2022-08-05T07:33:35.073Z,22.17
2022-08-05T07:34:33.157Z,22.20
2022-08-05T07:36:03.870Z,22.23
2022-08-05T07:36:41.964Z,22.25
2022-08-05T07:37:47.257Z,22.27
2022-08-05T07:38:55.033Z,22.26
2022-08-05T07:40:25.951Z,22.24
2022-08-05T07:41:16.700Z,22.23
2022-08-05T07:42:14.783Z,22.24
2022-08-05T07:43:20.352Z,22.26
2022-08-05T07:44:18.499Z,22.27
2022-08-05T07:45:17.295Z,22.26
2022-08-05T07:46:25.557Z,22.22
2022-08-05T07:47:26.135Z,22.19
2022-08-05T07:49:00.829Z,22.18
2022-08-05T07:49:34.966Z,22.19
2022-08-05T07:50:39.397Z,22.18
2022-08-05T07:51:53.103Z,22.15
2022-08-05T07:52:48.225Z,22.09
2022-08-05T07:53:52.640Z,22.03
2022-08-05T07:54:57.068Z,21.96
2022-08-05T07:56:05.500Z,21.88
2022-08-05T07:57:22.580Z,21.78
2022-08-05T07:58:17.623Z,21.70
2022-08-05T07:59:14.738Z,21.62
2022-08-05T08:00:19.189Z,21.54
2022-08-05T08:01:23.637Z,21.46
2022-08-05T08:02:31.176Z,21.39
2022-08-05T08:03:44.438Z,21.32
2022-08-05T08:04:37.366Z,21.25
2022-08-05T08:05:44.697Z,21.19
2022-08-05T08:06:45.988Z,21.13
2022-08-05T08:07:59.078Z,21.11
2022-08-05T08:08:54.809Z,21.08
2022-08-05T08:09:59.219Z,21.07
2022-08-05T08:11:03.672Z,21.06
2022-08-05T08:12:27.521Z,21.04
2022-08-05T08:13:12.493Z,21.04
2022-08-05T08:14:18.199Z,21.03
2022-08-05T08:16:33.987Z,21.03
2022-08-05T08:16:50.851Z,21.03
2022-08-05T08:17:30.297Z,21.01
2022-08-05T08:18:34.580Z,20.99
2022-08-05T08:20:21.080Z,20.98
2022-08-05T08:21:01.885Z,20.98
2022-08-05T08:21:47.859Z,20.98
2022-08-05T08:22:52.261Z,20.98
2022-08-05T08:24:02.215Z,20.99
2022-08-05T08:25:02.714Z,21.00
2022-08-05T08:26:05.522Z,21.00
2022-08-05T08:27:09.931Z,21.02
2022-08-05T08:28:18.822Z,21.05
2022-08-05T08:29:29.406Z,21.08
2022-08-05T08:30:32.583Z,21.12
2022-08-05T08:31:27.611Z,21.17
2022-08-05T08:32:32.023Z,21.24
2022-08-05T08:33:37.986Z,21.30
2022-08-05T08:34:40.851Z,21.35
2022-08-05T08:35:52.853Z,21.40
2022-08-05T08:36:54.740Z,21.43
2022-08-05T08:37:56.370Z,21.45
2022-08-05T08:38:58.579Z,21.45
2022-08-05T08:40:03.452Z,21.44
2022-08-05T08:41:08.053Z,21.43
2022-08-05T08:42:34.073Z,21.41
2022-08-05T08:44:56.502Z,21.40
2022-08-05T08:45:23.562Z,21.40
2022-08-05T08:45:29.740Z,21.41
2022-08-05T08:46:31.415Z,21.43
2022-08-05T08:48:05.702Z,21.45
2022-08-05T08:49:03.277Z,21.48
2022-08-05T08:50:22.916Z,21.49
2022-08-05T08:51:03.722Z,21.49
2022-08-05T08:52:02.983Z,21.48
2022-08-05T08:52:57.926Z,21.49
2022-08-05T08:54:02.336Z,21.50
2022-08-05T08:55:13.021Z,21.54
2022-08-05T08:56:11.189Z,21.58
2022-08-05T08:57:15.596Z,21.61
2022-08-05T08:58:20.036Z,21.64
2022-08-05T08:59:27.686Z,21.66
2022-08-05T09:00:28.949Z,21.65
2022-08-05T09:01:33.405Z,21.63
2022-08-05T09:02:37.775Z,21.61
2022-08-05T09:03:45.136Z,21.60
2022-08-05T09:04:58.571Z,21.58
2022-08-05T09:06:09.273Z,21.56
2022-08-05T09:06:55.396Z,21.56
2022-08-05T09:07:59.802Z,21.58
2022-08-05T09:09:04.201Z,21.60
2022-08-05T09:10:08.590Z,21.60
2022-08-05T09:11:13.929Z,21.60
2022-08-05T09:12:20.620Z,21.61
2022-08-05T09:13:23.476Z,21.63
2022-08-05T09:14:56.648Z,21.70
2022-08-05T09:15:30.614Z,21.80
2022-08-05T09:16:34.990Z,21.91
2022-08-05T09:17:40.737Z,21.97
2022-08-05T09:18:43.737Z,22.01
2022-08-05T09:19:55.230Z,22.03
2022-08-05T09:20:52.599Z,22.03
2022-08-05T09:22:23.341Z,22.01
2022-08-05T09:23:04.881Z,21.99
2022-08-05T09:24:05.773Z,21.98
2022-08-05T09:25:24.057Z,21.97
2022-08-05T09:26:15.847Z,21.95
2022-08-05T09:27:18.992Z,21.93
2022-08-05T09:28:23.435Z,21.90
2022-08-05T09:29:30.791Z,21.86
2022-08-05T09:30:32.261Z,21.82
2022-08-05T09:32:39.062Z,21.80
2022-08-05T09:32:46.729Z,21.77
2022-08-05T09:33:45.551Z,21.75
2022-08-05T09:34:49.979Z,21.73
2022-08-05T09:35:54.394Z,21.71
2022-08-05T09:36:59.979Z,21.69
2022-08-05T09:38:12.937Z,21.66
2022-08-05T09:39:16.611Z,21.67
2022-08-05T09:40:12.147Z,21.66
2022-08-05T09:41:16.555Z,21.63
2022-08-05T09:42:24.151Z,21.59
2022-08-05T09:43:25.331Z,21.55
2022-08-05T09:44:29.672Z,21.52
2022-08-05T09:46:06.496Z,21.50
2022-08-05T09:46:38.522Z,21.48
2022-08-05T09:47:55.089Z,21.45
2022-08-05T09:49:06.541Z,21.44
2022-08-05T09:49:55.010Z,21.43
2022-08-05T09:50:56.284Z,21.41
2022-08-05T09:52:00.746Z,21.42
2022-08-05T09:53:05.166Z,21.43
2022-08-05T09:54:10.157Z,21.46
2022-08-05T09:55:56.825Z,21.49
2022-08-05T09:56:18.447Z,21.51
2022-08-05T09:57:23.357Z,21.53
2022-08-05T09:58:29.217Z,21.54
2022-08-05T09:59:35.217Z,21.55
2022-08-05T10:00:36.186Z,21.55
2022-08-05T10:01:40.619Z,21.57
2022-08-05T10:02:45.113Z,21.60
2022-08-05T10:03:58.473Z,21.64
2022-08-05T10:04:53.917Z,21.73
2022-08-05T10:05:58.338Z,21.84
2022-08-05T10:07:19.672Z,21.95
2022-08-05T10:08:36.660Z,22.04
2022-08-05T10:09:27.811Z,22.11
2022-08-05T10:10:17.917Z,22.17
2022-08-05T10:11:20.506Z,22.21
2022-08-05T10:12:33.432Z,22.23
2022-08-05T10:13:31.628Z,22.25
2022-08-05T10:14:33.838Z,22.28
2022-08-05T10:15:38.259Z,22.31
2022-08-05T10:16:52.955Z,22.34
2022-08-05T10:17:54.617Z,22.36
2022-08-05T10:18:51.539Z,22.35
2022-08-05T10:20:04.471Z,22.34
2022-08-05T10:21:08.456Z,22.31
2022-08-05T10:22:04.795Z,22.26
2022-08-05T10:23:34.073Z,22.18
2022-08-05T10:24:14.015Z,22.13
2022-08-05T10:25:18.070Z,22.11
2022-08-05T10:26:24.244Z,22.08
2022-08-05T10:28:09.442Z,22.05
2022-08-05T10:28:31.426Z,22.03
2022-08-05T10:30:41.878Z,22.05
2022-08-05T10:32:49.066Z,22.11
2022-08-05T10:32:51.501Z,22.16
2022-08-05T10:32:59.877Z,22.18
2022-08-05T10:33:54.466Z,22.20
2022-08-05T10:34:57.904Z,22.24
2022-08-05T10:36:02.322Z,22.30
2022-08-05T10:37:06.741Z,22.35
2022-08-05T10:38:11.754Z,22.40
2022-08-05T10:39:24.824Z,22.43
2022-08-05T10:40:20.081Z,22.45
2022-08-05T10:41:24.452Z,22.45
2022-08-05T10:42:33.924Z,22.44
2022-08-05T10:43:35.786Z,22.43
2022-08-05T10:44:37.743Z,22.39
2022-08-05T10:45:42.963Z,22.36
2022-08-05T10:46:46.583Z,22.33
2022-08-05T10:48:29.948Z,22.30
2022-08-05T10:48:58.063Z,22.26
2022-08-05T10:50:20.877Z,22.21
2022-08-05T10:51:04.312Z,22.18
2022-08-05T10:52:10.479Z,22.17
2022-08-05T10:53:13.183Z,22.17
2022-08-05T10:54:28.558Z,22.21
2022-08-05T10:55:22.031Z,22.27
2022-08-05T10:56:26.492Z,22.35
2022-08-05T10:57:33.957Z,22.48
2022-08-05T10:58:35.902Z,22.60
2022-08-05T11:00:02.547Z,22.69
2022-08-05T11:00:44.216Z,22.74
2022-08-05T11:01:54.560Z,22.82
2022-08-05T11:02:53.032Z,22.93
2022-08-05T11:03:57.495Z,22.99
2022-08-05T11:05:01.885Z,23.04
2022-08-05T11:06:06.296Z,23.10
2022-08-05T11:07:10.724Z,23.18
2022-08-05T11:08:36.567Z,23.27
2022-08-05T11:09:32.500Z,23.35
2022-08-05T11:10:27.409Z,23.43
2022-08-05T11:11:41.984Z,23.44
2022-08-05T11:12:33.118Z,23.46
2022-08-05T11:13:37.398Z,23.51
2022-08-05T11:16:00.453Z,23.60
2022-08-05T11:16:57.093Z,23.66
2022-08-05T11:18:00.179Z,23.68
2022-08-05T11:18:59.522Z,23.73
2022-08-05T11:20:11.466Z,23.77
2022-08-05T11:21:12.033Z,23.81
2022-08-05T11:22:12.768Z,23.86
2022-08-05T11:23:17.211Z,23.89
2022-08-05T11:24:30.014Z,23.86
2022-08-05T11:26:05.040Z,23.79
2022-08-05T11:26:32.594Z,23.76
2022-08-05T11:27:50.981Z,23.76
2022-08-05T11:28:39.309Z,23.75
2022-08-05T11:29:43.733Z,23.73
2022-08-05T11:30:48.139Z,23.72
2022-08-05T11:31:56.447Z,23.72
2022-08-05T11:32:56.971Z,23.72
2022-08-05T11:34:01.412Z,23.70
2022-08-05T11:35:05.838Z,23.68
2022-08-05T11:36:10.256Z,23.68
2022-08-05T11:38:28.240Z,23.74
2022-08-05T11:38:29.411Z,23.78
2022-08-05T11:39:23.618Z,23.83
2022-08-05T11:40:27.942Z,23.89
2022-08-05T11:41:56.329Z,23.95
2022-08-05T11:42:38.108Z,24.00
2022-08-05T11:44:05.026Z,24.08
2022-08-05T11:44:53.695Z,24.13
2022-08-05T11:46:30.606Z,24.19
2022-08-05T11:47:09.996Z,24.28
2022-08-05T11:47:58.906Z,24.39
2022-08-05T11:49:03.317Z,24.52
2022-08-05T11:50:07.766Z,24.64
2022-08-05T11:51:12.139Z,24.75
2022-08-05T11:52:16.556Z,24.85
2022-08-05T11:53:21.048Z,24.95
2022-08-05T11:54:33.861Z,25.05
2022-08-05T11:55:31.992Z,25.17
2022-08-05T11:56:41.144Z,25.26
2022-08-05T11:58:08.186Z,25.35
2022-08-05T11:58:43.076Z,25.45
2022-08-05T11:59:50.410Z,25.54
2022-08-05T12:00:52.786Z,25.61
2022-08-05T12:01:56.325Z,25.68
2022-08-05T12:03:00.764Z,25.75
2022-08-05T12:04:05.164Z,25.75
2022-08-05T12:05:18.328Z,25.76
2022-08-05T12:06:13.964Z,25.76
2022-08-05T12:07:18.365Z,25.73
2022-08-05T12:08:22.775Z,25.72
2022-08-05T12:09:52.978Z,25.73
2022-08-05T12:10:43.567Z,25.70
2022-08-05T12:11:40.318Z,25.68
2022-08-05T12:12:58.265Z,25.73
2022-08-05T12:13:49.303Z,25.78
2022-08-05T12:14:49.288Z,25.81
2022-08-05T12:15:55.887Z,25.84
2022-08-05T12:16:58.107Z,25.86
2022-08-05T12:18:09.898Z,25.93
2022-08-05T12:19:08.418Z,26.04
2022-08-05T12:20:27.554Z,26.13
2022-08-05T12:21:15.760Z,26.18
2022-08-05T12:22:20.258Z,26.23
2022-08-05T12:23:24.579Z,26.24
2022-08-05T12:24:29.970Z,26.21
2022-08-05T12:25:33.421Z,26.22
2022-08-05T12:26:37.828Z,26.30
2022-08-05T12:27:52.743Z,26.42
2022-08-05T12:28:46.630Z,26.58
2022-08-05T12:29:56.785Z,26.73
2022-08-05T12:30:55.489Z,26.88
2022-08-05T12:32:02.150Z,27.02
2022-08-05T12:33:07.235Z,27.19
2022-08-05T12:34:08.709Z,27.39
2022-08-05T12:35:13.128Z,27.58
2022-08-05T12:36:17.585Z,28.26
2022-08-05T12:37:21.987Z,29.22
2022-08-05T12:38:30.239Z,29.71
2022-08-05T12:39:34.529Z,29.84
2022-08-05T12:40:35.232Z,29.88
2022-08-05T12:41:43.690Z,29.92
2022-08-05T12:42:44.032Z,30.06
2022-08-05T12:43:48.432Z,30.65
2022-08-05T12:44:52.861Z,31.15
2022-08-05T12:45:57.262Z,31.45
2022-08-05T12:47:02.063Z,31.94
2022-08-05T12:48:27.679Z,32.79
2022-08-05T12:49:13.147Z,33.73
2022-08-05T12:50:14.902Z,34.66
2022-08-05T12:52:10.777Z,35.61
2022-08-05T12:52:26.738Z,36.56
2022-08-05T12:53:37.155Z,37.36
2022-08-05T12:54:32.554Z,38.07
2022-08-05T12:55:36.982Z,38.47
2022-08-05T12:56:41.372Z,38.84
2022-08-05T12:58:38.337Z,39.14
2022-08-05T12:58:55.729Z,39.19
2022-08-05T13:01:58.473Z,39.25
2022-08-05T13:02:01.382Z,39.41
2022-08-05T13:02:06.623Z,39.66
2022-08-05T13:03:07.748Z,40.09
2022-08-05T13:04:12.134Z,40.63
2022-08-05T13:05:16.548Z,41.09
2022-08-05T13:06:20.938Z,41.33
2022-08-05T13:07:55.804Z,41.37
2022-08-05T13:08:29.722Z,41.62
2022-08-05T13:09:34.105Z,42.00
2022-08-05T13:10:38.534Z,41.82
2022-08-05T13:12:01.436Z,41.10
2022-08-05T13:12:51.221Z,40.57
2022-08-05T13:14:05.368Z,40.11
2022-08-05T13:14:59.178Z,39.60
2022-08-05T13:16:00.527Z,39.09
2022-08-05T13:17:04.904Z,38.51
2022-08-05T13:18:09.307Z,38.07
2022-08-05T13:19:14.538Z,38.15
2022-08-05T13:20:23.428Z,38.15
2022-08-05T13:21:23.327Z,38.08
2022-08-05T13:22:29.976Z,38.17
2022-08-05T13:23:32.128Z,37.90
2022-08-05T13:24:57.727Z,37.25
2022-08-05T13:25:52.033Z,36.55
2022-08-05T13:26:50.663Z,36.00
2022-08-05T13:27:50.280Z,35.60
2022-08-05T13:28:54.098Z,35.30
2022-08-05T13:30:33.150Z,35.06
2022-08-05T13:31:03.409Z,35.01
2022-08-05T13:32:07.349Z,35.05
2022-08-05T13:33:11.751Z,35.03
2022-08-05T13:34:24.492Z,34.86
2022-08-05T13:35:22.166Z,34.55
2022-08-05T13:36:24.935Z,34.12
2022-08-05T13:37:34.740Z,33.66
2022-08-05T13:38:36.355Z,33.20
2022-08-05T13:40:16.473Z,32.78
2022-08-05T13:40:49.976Z,32.51
2022-08-05T13:41:46.901Z,32.32
2022-08-05T13:42:55.656Z,32.18
2022-08-05T13:43:55.679Z,32.10
2022-08-05T13:45:00.070Z,32.03
2022-08-05T13:46:04.488Z,31.99
2022-08-05T13:47:09.344Z,32.07
2022-08-05T13:48:58.178Z,32.16
2022-08-05T13:49:17.651Z,32.42
2022-08-05T13:50:22.062Z,33.70
2022-08-05T13:51:26.452Z,35.25
2022-08-05T13:52:30.842Z,36.43
2022-08-05T13:53:35.244Z,37.63
2022-08-05T13:54:39.628Z,38.91
2022-08-05T13:55:49.237Z,39.97
2022-08-05T13:56:50.722Z,40.96
2022-08-05T13:57:52.831Z,41.89
2022-08-05T13:58:57.206Z,42.48
2022-08-05T14:00:01.875Z,43.09
2022-08-05T14:01:06.001Z,43.71
2022-08-05T14:02:10.385Z,44.31
2022-08-05T14:03:14.791Z,44.46
2022-08-05T14:04:19.149Z,44.14
2022-08-05T14:05:48.096Z,43.94
2022-08-05T14:06:27.942Z,43.85
2022-08-05T14:08:01.174Z,43.17